sensor_id;sensor_type;location;lat;lon;timestamp;pressure;altitude;pressure_sealevel;temperature;humidity
57779;BME280;43608;49.486;9.640;2023-05-22T00:00:07;98332.38;;;13.20;88.25
57779;BME280;43608;49.486;9.640;2023-05-22T00:00:37;98323.53;;;13.18;87.86
57779;BME280;43608;49.486;9.640;2023-05-22T00:01:08;98320.91;;;13.16;88.05
57779;BME280;43608;49.486;9.640;2023-05-22T00:01:39;98322.72;;;13.14;87.95
57779;BME280;43608;49.486;9.640;2023-05-22T00:02:11;98325.34;;;13.16;88.02
57779;BME280;43608;49.486;9.640;2023-05-22T00:02:42;98317.53;;;13.06;88.02
57779;BME280;43608;49.486;9.640;2023-05-22T00:03:12;98326.28;;;13.13;88.21
57779;BME280;43608;49.486;9.640;2023-05-22T00:03:42;98328.94;;;13.15;88.24
57779;BME280;43608;49.486;9.640;2023-05-22T00:04:13;98324.53;;;13.12;88.19
57779;BME280;43608;49.486;9.640;2023-05-22T00:04:50;98322.81;;;13.10;88.15
57779;BME280;43608;49.486;9.640;2023-05-22T00:05:20;98321.06;;;13.09;88.23
57779;BME280;43608;49.486;9.640;2023-05-22T00:05:50;98315.78;;;13.05;87.95
57779;BME280;43608;49.486;9.640;2023-05-22T00:06:22;98298.31;;;12.92;88.32
57779;BME280;43608;49.486;9.640;2023-05-22T00:06:53;98321.97;;;13.08;88.20
57779;BME280;43608;49.486;9.640;2023-05-22T00:07:24;98311.41;;;13.03;88.19
57779;BME280;43608;49.486;9.640;2023-05-22T00:07:56;98319.34;;;13.06;88.21
57779;BME280;43608;49.486;9.640;2023-05-22T00:08:27;98321.09;;;13.07;88.41
57779;BME280;43608;49.486;9.640;2023-05-22T00:08:57;98323.75;;;13.07;88.45
57779;BME280;43608;49.486;9.640;2023-05-22T00:09:28;98308.91;;;12.97;88.40
57779;BME280;43608;49.486;9.640;2023-05-22T00:09:58;98322.03;;;13.04;88.47
57779;BME280;43608;49.486;9.640;2023-05-22T00:10:28;98296.66;;;12.88;88.33
57779;BME280;43608;49.486;9.640;2023-05-22T00:10:59;98323.88;;;13.01;88.42
57779;BME280;43608;49.486;9.640;2023-05-22T00:11:30;98311.59;;;12.94;88.62
57779;BME280;43608;49.486;9.640;2023-05-22T00:12:00;98319.47;;;13.00;88.43
57779;BME280;43608;49.486;9.640;2023-05-22T00:12:31;98310.69;;;12.95;88.48
57779;BME280;43608;49.486;9.640;2023-05-22T00:13:01;98320.31;;;13.00;88.58
57779;BME280;43608;49.486;9.640;2023-05-22T00:13:32;98303.72;;;12.89;88.72
57779;BME280;43608;49.486;9.640;2023-05-22T00:14:02;98319.47;;;13.00;88.64
57779;BME280;43608;49.486;9.640;2023-05-22T00:14:32;98331.00;;;12.99;88.75
57779;BME280;43608;49.486;9.640;2023-05-22T00:15:03;98314.22;;;12.97;88.95
57779;BME280;43608;49.486;9.640;2023-05-22T00:15:34;98321.25;;;12.98;88.95
57779;BME280;43608;49.486;9.640;2023-05-22T00:16:05;98306.31;;;12.92;88.84
57779;BME280;43608;49.486;9.640;2023-05-22T00:16:35;98324.84;;;12.97;89.04
57779;BME280;43608;49.486;9.640;2023-05-22T00:17:05;98319.53;;;12.97;88.87
57779;BME280;43608;49.486;9.640;2023-05-22T00:17:36;98309.88;;;12.91;89.11
57779;BME280;43608;49.486;9.640;2023-05-22T00:18:06;98289.75;;;12.78;89.05
57779;BME280;43608;49.486;9.640;2023-05-22T00:18:37;98323.09;;;12.96;88.79
57779;BME280;43608;49.486;9.640;2023-05-22T00:19:11;98307.31;;;12.86;88.92
57779;BME280;43608;49.486;9.640;2023-05-22T00:19:45;98309.91;;;12.89;88.87
57779;BME280;43608;49.486;9.640;2023-05-22T00:20:16;98287.94;;;12.80;88.78
57779;BME280;43608;49.486;9.640;2023-05-22T00:20:47;98309.03;;;12.89;88.88
57779;BME280;43608;49.486;9.640;2023-05-22T00:21:17;98320.47;;;12.94;88.96
57779;BME280;43608;49.486;9.640;2023-05-22T00:21:48;98305.53;;;12.87;88.91
57779;BME280;43608;49.486;9.640;2023-05-22T00:22:20;98312.59;;;12.88;89.04
57779;BME280;43608;49.486;9.640;2023-05-22T00:22:51;98304.69;;;12.83;89.27
57779;BME280;43608;49.486;9.640;2023-05-22T00:23:23;98314.28;;;12.92;89.16
57779;BME280;43608;49.486;9.640;2023-05-22T00:23:54;98298.59;;;12.78;89.22
57779;BME280;43608;49.486;9.640;2023-05-22T00:24:24;98313.47;;;12.90;89.17
57779;BME280;43608;49.486;9.640;2023-05-22T00:24:54;98310.84;;;12.87;89.27
57779;BME280;43608;49.486;9.640;2023-05-22T00:25:25;98309.06;;;12.87;89.31
57779;BME280;43608;49.486;9.640;2023-05-22T00:25:55;98317.03;;;12.89;89.26
57779;BME280;43608;49.486;9.640;2023-05-22T00:26:26;98311.75;;;12.86;89.27
57779;BME280;43608;49.486;9.640;2023-05-22T00:26:56;98315.34;;;12.83;88.88
57779;BME280;43608;49.486;9.640;2023-05-22T00:27:27;98320.69;;;12.82;89.15
57779;BME280;43608;49.486;9.640;2023-05-22T00:27:57;98311.06;;;12.76;89.34
57779;BME280;43608;49.486;9.640;2023-05-22T00:28:28;98321.59;;;12.81;89.28
57779;BME280;43608;49.486;9.640;2023-05-22T00:28:58;98307.50;;;12.76;89.40
57779;BME280;43608;49.486;9.640;2023-05-22T00:29:28;98314.53;;;12.80;89.21
57779;BME280;43608;49.486;9.640;2023-05-22T00:29:59;98324.25;;;12.82;89.25
57779;BME280;43608;49.486;9.640;2023-05-22T00:30:30;98299.63;;;12.71;89.16
57779;BME280;43608;49.486;9.640;2023-05-22T00:31:00;98317.28;;;12.75;89.26
57779;BME280;43608;49.486;9.640;2023-05-22T00:31:31;98324.28;;;12.79;89.29
57779;BME280;43608;49.486;9.640;2023-05-22T00:32:01;98305.03;;;12.66;89.17
57779;BME280;43608;49.486;9.640;2023-05-22T00:32:32;98297.00;;;12.68;89.18
57779;BME280;43608;49.486;9.640;2023-05-22T00:33:02;98298.88;;;12.64;88.78
57779;BME280;43608;49.486;9.640;2023-05-22T00:33:33;98306.72;;;12.70;89.27
57779;BME280;43608;49.486;9.640;2023-05-22T00:34:03;98318.13;;;12.76;89.08
57779;BME280;43608;49.486;9.640;2023-05-22T00:34:33;98307.59;;;12.71;89.13
57779;BME280;43608;49.486;9.640;2023-05-22T00:35:04;98318.13;;;12.76;89.08
57779;BME280;43608;49.486;9.640;2023-05-22T00:35:35;98317.28;;;12.75;89.31
57779;BME280;43608;49.486;9.640;2023-05-22T00:36:06;98312.84;;;12.74;89.19
57779;BME280;43608;49.486;9.640;2023-05-22T00:36:36;98318.19;;;12.74;89.30
57779;BME280;43608;49.486;9.640;2023-05-22T00:37:07;98290.97;;;12.60;89.77
57779;BME280;43608;49.486;9.640;2023-05-22T00:37:37;98313.78;;;12.71;89.44
57779;BME280;43608;49.486;9.640;2023-05-22T00:38:07;98303.25;;;12.65;89.57
57779;BME280;43608;49.486;9.640;2023-05-22T00:38:38;98309.47;;;12.66;89.65
57779;BME280;43608;49.486;9.640;2023-05-22T00:39:08;98315.59;;;12.71;89.72
57779;BME280;43608;49.486;9.640;2023-05-22T00:39:38;98306.84;;;12.64;89.82
57779;BME280;43608;49.486;9.640;2023-05-22T00:40:09;98315.66;;;12.66;89.62
57779;BME280;43608;49.486;9.640;2023-05-22T00:40:40;98315.66;;;12.66;89.64
57779;BME280;43608;49.486;9.640;2023-05-22T00:41:10;98301.69;;;12.56;89.94
57779;BME280;43608;49.486;9.640;2023-05-22T00:41:41;98320.13;;;12.66;89.93
57779;BME280;43608;49.486;9.640;2023-05-22T00:42:11;98300.75;;;12.59;89.93
57779;BME280;43608;49.486;9.640;2023-05-22T00:42:44;98303.47;;;12.54;90.00
57779;BME280;43608;49.486;9.640;2023-05-22T00:43:14;98304.34;;;12.56;89.88
57779;BME280;43608;49.486;9.640;2023-05-22T00:43:46;98318.47;;;12.60;90.12
57779;BME280;43608;49.486;9.640;2023-05-22T00:44:17;98301.72;;;12.53;90.14
57779;BME280;43608;49.486;9.640;2023-05-22T00:44:47;98307.91;;;12.55;90.10
57779;BME280;43608;49.486;9.640;2023-05-22T00:45:17;98321.09;;;12.62;90.17
57779;BME280;43608;49.486;9.640;2023-05-22T00:45:48;98323.75;;;12.62;90.06
57779;BME280;43608;49.486;9.640;2023-05-22T00:46:18;98315.81;;;12.59;89.95
57779;BME280;43608;49.486;9.640;2023-05-22T00:46:50;98311.50;;;12.51;89.63
57779;BME280;43608;49.486;9.640;2023-05-22T00:47:20;98321.13;;;12.60;89.58
57779;BME280;43608;49.486;9.640;2023-05-22T00:47:52;98322.88;;;12.60;89.90
57779;BME280;43608;49.486;9.640;2023-05-22T00:48:23;98322.03;;;12.58;89.57
57779;BME280;43608;49.486;9.640;2023-05-22T00:48:54;98328.22;;;12.58;89.89
57779;BME280;43608;49.486;9.640;2023-05-22T00:49:24;98302.75;;;12.46;89.72
57779;BME280;43608;49.486;9.640;2023-05-22T00:49:54;98316.75;;;12.54;89.98
57779;BME280;43608;49.486;9.640;2023-05-22T00:50:25;98322.03;;;12.56;89.92
57779;BME280;43608;49.486;9.640;2023-05-22T00:50:56;98323.84;;;12.55;89.74
57779;BME280;43608;49.486;9.640;2023-05-22T00:51:27;98309.78;;;12.49;89.66
57779;BME280;43608;49.486;9.640;2023-05-22T00:51:58;98300.16;;;12.42;89.73
57779;BME280;43608;49.486;9.640;2023-05-22T00:52:30;98311.59;;;12.47;89.50
57779;BME280;43608;49.486;9.640;2023-05-22T00:53:00;98321.25;;;12.52;89.66
57779;BME280;43608;49.486;9.640;2023-05-22T00:53:31;98324.81;;;12.51;89.64
57779;BME280;43608;49.486;9.640;2023-05-22T00:54:02;98280.94;;;12.27;89.78
57779;BME280;43608;49.486;9.640;2023-05-22T00:54:34;98323.00;;;12.52;89.66
57779;BME280;43608;49.486;9.640;2023-05-22T00:55:06;98322.16;;;12.51;89.67
57779;BME280;43608;49.486;9.640;2023-05-22T00:55:37;98323.91;;;12.51;89.78
57779;BME280;43608;49.486;9.640;2023-05-22T00:56:08;98309.81;;;12.46;89.81
57779;BME280;43608;49.486;9.640;2023-05-22T00:56:39;98321.28;;;12.49;89.52
57779;BME280;43608;49.486;9.640;2023-05-22T00:57:10;98323.03;;;12.50;89.78
57779;BME280;43608;49.486;9.640;2023-05-22T00:57:40;98295.03;;;12.31;89.67
57779;BME280;43608;49.486;9.640;2023-05-22T00:58:16;98323.97;;;12.48;89.70
57779;BME280;43608;49.486;9.640;2023-05-22T00:58:47;98330.19;;;12.47;89.67
57779;BME280;43608;49.486;9.640;2023-05-22T00:59:18;98322.22;;;12.47;89.72
57779;BME280;43608;49.486;9.640;2023-05-22T00:59:49;98322.28;;;12.44;89.92
57779;BME280;43608;49.486;9.640;2023-05-22T01:00:19;98308.22;;;12.35;89.72
57779;BME280;43608;49.486;9.640;2023-05-22T01:00:50;98322.28;;;12.44;89.58
57779;BME280;43608;49.486;9.640;2023-05-22T01:01:21;98323.22;;;12.41;89.56
57779;BME280;43608;49.486;9.640;2023-05-22T01:01:52;98310.88;;;12.35;89.53
57779;BME280;43608;49.486;9.640;2023-05-22T01:02:23;98320.56;;;12.41;89.64
57779;BME280;43608;49.486;9.640;2023-05-22T01:02:53;98318.84;;;12.38;89.60
57779;BME280;43608;49.486;9.640;2023-05-22T01:03:24;98320.59;;;12.39;89.85
57779;BME280;43608;49.486;9.640;2023-05-22T01:03:58;98303.09;;;12.28;89.74
57779;BME280;43608;49.486;9.640;2023-05-22T01:04:30;98308.34;;;12.31;89.58
57779;BME280;43608;49.486;9.640;2023-05-22T01:05:03;98318.84;;;12.38;89.82
57779;BME280;43608;49.486;9.640;2023-05-22T01:05:36;98320.63;;;12.36;89.83
57779;BME280;43608;49.486;9.640;2023-05-22T01:06:07;98305.75;;;12.28;89.85
57779;BME280;43608;49.486;9.640;2023-05-22T01:06:37;98305.75;;;12.28;89.93
57779;BME280;43608;49.486;9.640;2023-05-22T01:07:08;98317.09;;;12.36;89.97
57779;BME280;43608;49.486;9.640;2023-05-22T01:07:38;98307.50;;;12.27;90.12
57779;BME280;43608;49.486;9.640;2023-05-22T01:08:09;98325.03;;;12.37;90.17
57779;BME280;43608;49.486;9.640;2023-05-22T01:08:41;98325.91;;;12.38;90.34
57779;BME280;43608;49.486;9.640;2023-05-22T01:09:11;98319.75;;;12.36;90.36
57779;BME280;43608;49.486;9.640;2023-05-22T01:09:42;98325.94;;;12.36;90.62
57779;BME280;43608;49.486;9.640;2023-05-22T01:10:13;98311.03;;;12.29;90.76
57779;BME280;43608;49.486;9.640;2023-05-22T01:10:43;98310.13;;;12.29;90.69
57779;BME280;43608;49.486;9.640;2023-05-22T01:11:19;98326.84;;;12.37;90.85
57779;BME280;43608;49.486;9.640;2023-05-22T01:12:30;98325.97;;;12.35;91.12
57779;BME280;43608;49.486;9.640;2023-05-22T01:13:21;98325.09;;;12.34;90.96
57779;BME280;43608;49.486;9.640;2023-05-22T01:14:26;98323.41;;;12.30;90.90
57779;BME280;43608;49.486;9.640;2023-05-22T01:16:21;98322.53;;;12.28;90.84
57779;BME280;43608;49.486;9.640;2023-05-22T01:17:02;98301.47;;;12.16;91.09
57779;BME280;43608;49.486;9.640;2023-05-22T01:19:04;98312.03;;;12.20;91.24
57779;BME280;43608;49.486;9.640;2023-05-22T01:21:12;98329.78;;;12.20;91.18
57779;BME280;43608;49.486;9.640;2023-05-22T01:22:49;98325.41;;;12.17;91.29
57779;BME280;43608;49.486;9.640;2023-05-22T01:31:30;98326.44;;;12.07;91.25
57779;BME280;43608;49.486;9.640;2023-05-22T01:32:03;98330.00;;;12.06;91.22
57779;BME280;43608;49.486;9.640;2023-05-22T01:32:35;98323.78;;;12.07;91.46
57779;BME280;43608;49.486;9.640;2023-05-22T01:33:08;98332.63;;;12.07;91.14
57779;BME280;43608;49.486;9.640;2023-05-22T01:33:44;98322.88;;;12.06;91.30
57779;BME280;43608;49.486;9.640;2023-05-22T01:34:15;98320.38;;;11.97;91.37
57779;BME280;43608;49.486;9.640;2023-05-22T01:34:51;98330.88;;;12.05;91.49
57779;BME280;43608;49.486;9.640;2023-05-22T01:35:23;98324.75;;;12.01;91.55
57779;BME280;43608;49.486;9.640;2023-05-22T01:35:56;98297.56;;;11.84;91.55
57779;BME280;43608;49.486;9.640;2023-05-22T01:36:30;98327.44;;;12.00;91.33
57779;BME280;43608;49.486;9.640;2023-05-22T01:37:01;98326.59;;;11.98;91.56
57779;BME280;43608;49.486;9.640;2023-05-22T01:37:33;98337.16;;;12.01;91.60
57779;BME280;43608;49.486;9.640;2023-05-22T01:38:06;98333.63;;;12.00;91.67
57779;BME280;43608;49.486;9.640;2023-05-22T01:38:38;98328.34;;;11.97;91.62
57779;BME280;43608;49.486;9.640;2023-05-22T01:39:10;98330.19;;;11.95;91.63
57779;BME280;43608;49.486;9.640;2023-05-22T01:39:42;98322.19;;;11.92;91.69
57779;BME280;43608;49.486;9.640;2023-05-22T01:40:13;98303.81;;;11.80;91.74
57779;BME280;43608;49.486;9.640;2023-05-22T01:40:44;98309.06;;;11.83;91.70
57779;BME280;43608;49.486;9.640;2023-05-22T01:41:15;98325.75;;;11.93;91.73
57779;BME280;43608;49.486;9.640;2023-05-22T01:41:46;98330.16;;;11.92;91.73
57779;BME280;43608;49.486;9.640;2023-05-22T01:42:17;98321.44;;;11.85;91.81
57779;BME280;43608;49.486;9.640;2023-05-22T01:42:48;98314.38;;;11.83;91.61
57779;BME280;43608;49.486;9.640;2023-05-22T01:43:19;98333.84;;;11.85;91.75
57779;BME280;43608;49.486;9.640;2023-05-22T01:43:49;98282.94;;;11.56;91.76
57779;BME280;43608;49.486;9.640;2023-05-22T01:44:19;98308.31;;;11.74;91.85
57779;BME280;43608;49.486;9.640;2023-05-22T01:44:50;98316.31;;;11.73;91.63
57779;BME280;43608;49.486;9.640;2023-05-22T01:45:20;98326.81;;;11.79;91.64
57779;BME280;43608;49.486;9.640;2023-05-22T01:45:51;98318.91;;;11.76;91.68
57779;BME280;43608;49.486;9.640;2023-05-22T01:46:25;98317.22;;;11.72;91.57
57779;BME280;43608;49.486;9.640;2023-05-22T01:46:55;98327.78;;;11.75;91.59
57779;BME280;43608;49.486;9.640;2023-05-22T01:47:29;98333.06;;;11.77;91.78
57779;BME280;43608;49.486;9.640;2023-05-22T01:48:00;98334.78;;;11.79;91.95
57779;BME280;43608;49.486;9.640;2023-05-22T01:48:31;98324.31;;;11.70;91.80
57779;BME280;43608;49.486;9.640;2023-05-22T01:49:01;98330.47;;;11.73;92.02
57779;BME280;43608;49.486;9.640;2023-05-22T01:49:32;98333.94;;;11.77;91.86
57779;BME280;43608;49.486;9.640;2023-05-22T01:50:05;98340.09;;;11.79;92.04
57779;BME280;43608;49.486;9.640;2023-05-22T01:50:35;98329.59;;;11.71;92.27
57779;BME280;43608;49.486;9.640;2023-05-22T01:51:19;98338.34;;;11.78;92.11
57779;BME280;43608;49.486;9.640;2023-05-22T01:51:56;98328.66;;;11.74;92.09
57779;BME280;43608;49.486;9.640;2023-05-22T01:53:51;98310.31;;;11.60;92.19
57779;BME280;43608;49.486;9.640;2023-05-22T01:54:45;98325.25;;;11.66;92.19
57779;BME280;43608;49.486;9.640;2023-05-22T01:55:24;98341.97;;;11.72;92.36
57779;BME280;43608;49.486;9.640;2023-05-22T01:56:07;98318.22;;;11.63;92.33
57779;BME280;43608;49.486;9.640;2023-05-22T01:57:12;98330.50;;;11.69;92.40
57779;BME280;43608;49.486;9.640;2023-05-22T01:57:58;98342.91;;;11.68;92.27
57779;BME280;43608;49.486;9.640;2023-05-22T01:59:21;98333.28;;;11.61;92.12
57779;BME280;43608;49.486;9.640;2023-05-22T01:59:55;98342.03;;;11.66;92.22
57779;BME280;43608;49.486;9.640;2023-05-22T02:00:28;98325.38;;;11.56;92.13
57779;BME280;43608;49.486;9.640;2023-05-22T02:01:00;98336.75;;;11.65;92.20
57779;BME280;43608;49.486;9.640;2023-05-22T02:01:35;98346.53;;;11.64;92.21
57779;BME280;43608;49.486;9.640;2023-05-22T02:02:09;98339.44;;;11.63;92.02
57779;BME280;43608;49.486;9.640;2023-05-22T02:03:04;98341.25;;;11.63;92.08
57779;BME280;43608;49.486;9.640;2023-05-22T02:03:37;98348.31;;;11.62;91.99
57779;BME280;43608;49.486;9.640;2023-05-22T02:04:09;98350.09;;;11.62;92.14
57779;BME280;43608;49.486;9.640;2023-05-22T02:04:44;98343.06;;;11.59;92.14
57779;BME280;43608;49.486;9.640;2023-05-22T02:05:16;98335.94;;;11.60;92.19
57779;BME280;43608;49.486;9.640;2023-05-22T02:05:52;98334.19;;;11.58;92.24
57779;BME280;43608;49.486;9.640;2023-05-22T02:06:25;98339.50;;;11.60;92.26
57779;BME280;43608;49.486;9.640;2023-05-22T02:06:58;98349.25;;;11.58;92.03
57779;BME280;43608;49.486;9.640;2023-05-22T02:07:31;98342.16;;;11.58;92.31
57779;BME280;43608;49.486;9.640;2023-05-22T02:08:03;98321.13;;;11.45;92.00
57779;BME280;43608;49.486;9.640;2023-05-22T02:08:37;98352.78;;;11.57;92.36
57779;BME280;43608;49.486;9.640;2023-05-22T02:09:09;98343.13;;;11.53;92.47
57779;BME280;43608;49.486;9.640;2023-05-22T02:09:40;98350.16;;;11.55;92.47
57779;BME280;43608;49.486;9.640;2023-05-22T02:10:13;98323.81;;;11.41;92.45
57779;BME280;43608;49.486;9.640;2023-05-22T02:10:45;98346.66;;;11.55;92.60
57779;BME280;43608;49.486;9.640;2023-05-22T02:11:16;98304.50;;;11.32;92.57
57779;BME280;43608;49.486;9.640;2023-05-22T02:11:49;98348.41;;;11.54;92.60
57779;BME280;43608;49.486;9.640;2023-05-22T02:12:20;98327.34;;;11.44;92.60
57779;BME280;43608;49.486;9.640;2023-05-22T02:12:52;98336.16;;;11.44;92.66
57779;BME280;43608;49.486;9.640;2023-05-22T02:13:23;98339.69;;;11.46;92.67
57779;BME280;43608;49.486;9.640;2023-05-22T02:13:55;98348.47;;;11.51;92.60
57779;BME280;43608;49.486;9.640;2023-05-22T02:14:27;98343.19;;;11.50;92.71
57779;BME280;43608;49.486;9.640;2023-05-22T02:14:59;98347.59;;;11.49;92.75
57779;BME280;43608;49.486;9.640;2023-05-22T02:15:29;98348.53;;;11.45;92.61
57779;BME280;43608;49.486;9.640;2023-05-22T02:16:00;98330.94;;;11.36;92.65
57779;BME280;43608;49.486;9.640;2023-05-22T02:16:30;98336.25;;;11.39;92.93
57779;BME280;43608;49.486;9.640;2023-05-22T02:17:01;98328.31;;;11.36;92.56
57779;BME280;43608;49.486;9.640;2023-05-22T02:17:36;98348.56;;;11.44;92.42
57779;BME280;43608;49.486;9.640;2023-05-22T02:18:09;98337.09;;;11.40;92.71
57779;BME280;43608;49.486;9.640;2023-05-22T02:18:41;98336.25;;;11.39;92.75
57779;BME280;43608;49.486;9.640;2023-05-22T02:19:13;98342.38;;;11.41;92.47
57779;BME280;43608;49.486;9.640;2023-05-22T02:19:44;98320.44;;;11.29;92.58
57779;BME280;43608;49.486;9.640;2023-05-22T02:20:15;98325.72;;;11.32;92.57
57779;BME280;43608;49.486;9.640;2023-05-22T02:20:45;98322.22;;;11.28;92.53
57779;BME280;43608;49.486;9.640;2023-05-22T02:21:16;98347.72;;;11.40;92.59
57779;BME280;43608;49.486;9.640;2023-05-22T02:21:46;98321.38;;;11.28;92.68
57779;BME280;43608;49.486;9.640;2023-05-22T02:22:17;98324.91;;;11.27;92.72
57779;BME280;43608;49.486;9.640;2023-05-22T02:22:47;98336.31;;;11.33;92.61
57779;BME280;43608;49.486;9.640;2023-05-22T02:23:18;98349.47;;;11.41;92.75
57779;BME280;43608;49.486;9.640;2023-05-22T02:23:48;98331.97;;;11.28;92.71
57779;BME280;43608;49.486;9.640;2023-05-22T02:24:19;98336.31;;;11.33;92.52
57779;BME280;43608;49.486;9.640;2023-05-22T02:24:49;98346.88;;;11.36;92.73
57779;BME280;43608;49.486;9.640;2023-05-22T02:25:20;98337.28;;;11.28;92.71
57779;BME280;43608;49.486;9.640;2023-05-22T02:25:51;98354.81;;;11.39;92.76
57779;BME280;43608;49.486;9.640;2023-05-22T02:26:21;98343.41;;;11.33;92.72
57779;BME280;43608;49.486;9.640;2023-05-22T02:26:52;98352.19;;;11.38;92.70
57779;BME280;43608;49.486;9.640;2023-05-22T02:27:22;98333.78;;;11.24;92.99
57779;BME280;43608;49.486;9.640;2023-05-22T02:27:52;98350.44;;;11.35;92.98
57779;BME280;43608;49.486;9.640;2023-05-22T02:28:23;98347.78;;;11.35;93.14
57779;BME280;43608;49.486;9.640;2023-05-22T02:28:53;98341.66;;;11.30;92.95
57779;BME280;43608;49.486;9.640;2023-05-22T02:29:24;98345.13;;;11.34;92.99
57779;BME280;43608;49.486;9.640;2023-05-22T02:29:54;98331.97;;;11.26;93.12
57779;BME280;43608;49.486;9.640;2023-05-22T02:30:24;98345.19;;;11.31;93.28
57779;BME280;43608;49.486;9.640;2023-05-22T02:30:55;98338.13;;;11.30;93.14
57779;BME280;43608;49.486;9.640;2023-05-22T02:31:25;98340.78;;;11.30;93.08
57779;BME280;43608;49.486;9.640;2023-05-22T02:31:56;98335.56;;;11.22;92.98
57779;BME280;43608;49.486;9.640;2023-05-22T02:32:26;98348.69;;;11.31;93.07
57779;BME280;43608;49.486;9.640;2023-05-22T02:32:57;98346.97;;;11.30;93.37
57779;BME280;43608;49.486;9.640;2023-05-22T02:33:29;98338.16;;;11.27;93.13
57779;BME280;43608;49.486;9.640;2023-05-22T02:33:59;98352.25;;;11.32;93.13
57779;BME280;43608;49.486;9.640;2023-05-22T02:34:30;98345.25;;;11.28;93.11
57779;BME280;43608;49.486;9.640;2023-05-22T02:35:01;98346.13;;;11.27;93.09
57779;BME280;43608;49.486;9.640;2023-05-22T02:35:32;98338.19;;;11.23;93.09
57779;BME280;43608;49.486;9.640;2023-05-22T02:36:02;98339.13;;;11.22;93.09
57779;BME280;43608;49.486;9.640;2023-05-22T02:36:33;98340.84;;;11.25;93.10
57779;BME280;43608;49.486;9.640;2023-05-22T02:37:03;98344.38;;;11.24;93.22
57779;BME280;43608;49.486;9.640;2023-05-22T02:37:34;98338.25;;;11.19;92.94
57779;BME280;43608;49.486;9.640;2023-05-22T02:38:05;98325.13;;;11.10;93.25
57779;BME280;43608;49.486;9.640;2023-05-22T02:38:35;98339.13;;;11.19;93.10
57779;BME280;43608;49.486;9.640;2023-05-22T02:39:06;98322.44;;;11.11;93.26
57779;BME280;43608;49.486;9.640;2023-05-22T02:39:36;98340.03;;;11.17;93.28
57779;BME280;43608;49.486;9.640;2023-05-22T02:40:07;98341.75;;;11.22;93.23
57779;BME280;43608;49.486;9.640;2023-05-22T02:40:39;98347.94;;;11.23;93.23
57779;BME280;43608;49.486;9.640;2023-05-22T02:41:09;98341.78;;;11.19;93.12
57779;BME280;43608;49.486;9.640;2023-05-22T02:41:39;98345.34;;;11.20;93.04
57779;BME280;43608;49.486;9.640;2023-05-22T02:42:10;98347.97;;;11.21;93.23
57779;BME280;43608;49.486;9.640;2023-05-22T02:42:40;98328.66;;;11.08;92.95
57779;BME280;43608;49.486;9.640;2023-05-22T02:43:11;98293.53;;;10.88;92.82
57779;BME280;43608;49.486;9.640;2023-05-22T02:43:41;98331.28;;;11.10;92.73
57779;BME280;43608;49.486;9.640;2023-05-22T02:44:11;98351.56;;;11.17;92.74
57779;BME280;43608;49.486;9.640;2023-05-22T02:44:41;98338.34;;;11.11;92.54
57779;BME280;43608;49.486;9.640;2023-05-22T02:45:12;98336.63;;;11.08;92.59
57779;BME280;43608;49.486;9.640;2023-05-22T02:45:42;98342.66;;;11.18;92.37
57779;BME280;43608;49.486;9.640;2023-05-22T02:46:13;98341.88;;;11.13;92.35
57779;BME280;43608;49.486;9.640;2023-05-22T02:46:43;98334.00;;;11.07;92.51
57779;BME280;43608;49.486;9.640;2023-05-22T02:47:13;98345.44;;;11.11;92.12
57779;BME280;43608;49.486;9.640;2023-05-22T02:47:44;98339.28;;;11.08;92.34
57779;BME280;43608;49.486;9.640;2023-05-22T02:48:14;98356.00;;;11.14;92.27
57779;BME280;43608;49.486;9.640;2023-05-22T02:48:45;98341.91;;;11.08;92.27
57779;BME280;43608;49.486;9.640;2023-05-22T02:49:16;98327.06;;;10.95;92.21
57779;BME280;43608;49.486;9.640;2023-05-22T02:49:46;98348.97;;;11.11;92.07
57779;BME280;43608;49.486;9.640;2023-05-22T02:50:17;98340.22;;;11.04;92.10
57779;BME280;43608;49.486;9.640;2023-05-22T02:50:50;98326.16;;;10.95;92.12
57779;BME280;43608;49.486;9.640;2023-05-22T02:51:21;98328.72;;;11.02;92.26
57779;BME280;43608;49.486;9.640;2023-05-22T02:51:51;98324.41;;;10.95;92.15
57779;BME280;43608;49.486;9.640;2023-05-22T02:52:21;98325.28;;;10.96;92.11
57779;BME280;43608;49.486;9.640;2023-05-22T02:52:53;98345.50;;;11.06;92.28
57779;BME280;43608;49.486;9.640;2023-05-22T02:53:24;98337.59;;;11.03;92.16
57779;BME280;43608;49.486;9.640;2023-05-22T02:53:55;98327.06;;;10.92;92.26
57779;BME280;43608;49.486;9.640;2023-05-22T02:54:25;98343.72;;;11.08;92.28
57779;BME280;43608;49.486;9.640;2023-05-22T02:54:55;98352.56;;;11.07;92.11
57779;BME280;43608;49.486;9.640;2023-05-22T02:55:26;98356.06;;;11.07;92.25
57779;BME280;43608;49.486;9.640;2023-05-22T02:55:56;98351.66;;;11.06;92.43
57779;BME280;43608;49.486;9.640;2023-05-22T02:56:27;98351.66;;;11.06;92.44
57779;BME280;43608;49.486;9.640;2023-05-22T02:56:58;98345.53;;;11.03;92.34
57779;BME280;43608;49.486;9.640;2023-05-22T02:57:29;98325.25;;;10.97;92.20
57779;BME280;43608;49.486;9.640;2023-05-22T02:57:59;98339.34;;;11.02;92.12
57779;BME280;43608;49.486;9.640;2023-05-22T02:58:29;98336.69;;;11.02;92.19
57779;BME280;43608;49.486;9.640;2023-05-22T02:58:59;98336.72;;;10.99;92.12
57779;BME280;43608;49.486;9.640;2023-05-22T02:59:30;98339.31;;;11.04;92.01
57779;BME280;43608;49.486;9.640;2023-05-22T03:00:01;98349.06;;;11.03;92.01
57779;BME280;43608;49.486;9.640;2023-05-22T03:00:32;98339.38;;;10.99;92.04
57779;BME280;43608;49.486;9.640;2023-05-22T03:01:03;98343.78;;;11.02;91.96
57779;BME280;43608;49.486;9.640;2023-05-22T03:01:35;98309.53;;;10.80;91.85
57779;BME280;43608;49.486;9.640;2023-05-22T03:02:07;98345.56;;;11.00;91.91
57779;BME280;43608;49.486;9.640;2023-05-22T03:02:37;98322.72;;;10.88;91.51
57779;BME280;43608;49.486;9.640;2023-05-22T03:03:08;98328.00;;;10.88;91.82
57779;BME280;43608;49.486;9.640;2023-05-22T03:03:38;98337.66;;;10.94;91.93
57779;BME280;43608;49.486;9.640;2023-05-22T03:04:09;98343.81;;;10.97;91.95
57779;BME280;43608;49.486;9.640;2023-05-22T03:04:41;98337.69;;;10.92;91.87